Time;durP1;ratioP1;P1;durP2;ratioP2;P2;SDS_P1;SDS_P2;PMS_P1;PMS_P2;Temp;Humidity;BMP_temperature;BMP_pressure;BME280_temperature;BME280_humidity;BME280_pressure;Samples;Min_cycle;Max_cycle;Signal;HPM_P1;HPM_P2
2022/11/09 00:02:19;;;;;;;10.43;1.43;;;;;;;-145.18;100.00;46719.00;5069326;28;20128;-67
2022/11/09 00:04:44;;;;;;;7.60;1.80;;;;;;;-145.18;100.00;46719.00;5069510;28;20060;-67
2022/11/09 00:07:09;;;;;;;9.67;1.80;;;;;;;-145.18;100.00;46719.00;5069527;28;20040;-67
2022/11/09 00:09:35;;;;;;;11.07;1.87;;;;;;;-145.18;100.00;46713.13;5069773;28;20060;-67
2022/11/09 00:12:03;;;;;;;6.87;2.10;;;;;;;-145.18;100.00;46713.13;5069371;28;20595;-67
2022/11/09 00:14:29;;;;;;;10.03;2.23;;;;;;;-145.18;100.00;46713.13;5069800;28;20029;-67
2022/11/09 00:16:55;;;;;;;10.27;1.80;;;;;;;-145.18;100.00;46699.47;5069273;28;20455;-68
2022/11/09 00:19:21;;;;;;;12.23;1.73;;;;;;;-145.18;100.00;46695.56;5069613;28;20024;-67
2022/11/09 00:21:46;;;;;;;16.43;2.97;;;;;;;-145.18;100.00;46679.94;5069516;28;20492;-67
2022/11/09 00:24:12;;;;;;;13.03;1.70;;;;;;;-145.18;100.00;46656.50;5069228;28;20050;-67
2022/11/09 00:26:37;;;;;;;9.20;1.70;;;;;;;-145.18;100.00;46644.78;5069780;28;20029;-67
2022/11/09 00:29:03;;;;;;;17.43;2.67;;;;;;;-145.18;100.00;46660.41;5069267;28;20527;-68
2022/11/09 00:31:28;;;;;;;11.03;1.87;;;;;;;-145.18;100.00;46660.41;5072623;28;20051;-67
2022/11/09 00:33:55;;;;;;;12.47;2.33;;;;;;;-145.18;100.00;46660.41;5055546;28;20043;-67
2022/11/09 00:36:22;;;;;;;10.60;1.60;;;;;;;-145.18;100.00;46656.50;5073208;28;20040;-67
2022/11/09 00:38:50;;;;;;;12.07;2.80;;;;;;;-145.18;100.00;46652.59;5073428;28;20036;-67
2022/11/09 00:41:15;;;;;;;10.00;1.90;;;;;;;-145.18;100.00;46638.91;5072978;28;20304;-67
2022/11/09 00:43:40;;;;;;;10.33;1.70;;;;;;;-145.18;100.00;46652.59;5073253;28;20105;-67
2022/11/09 00:46:06;;;;;;;9.87;2.70;;;;;;;-145.18;100.00;46642.81;5072803;28;20037;-67
2022/11/09 00:48:32;;;;;;;13.80;1.97;;;;;;;-145.18;100.00;46642.81;5073199;28;20036;-69
2022/11/09 00:50:58;;;;;;;13.77;2.07;;;;;;;-145.18;100.00;46642.81;5072987;28;20575;-69
2022/11/09 00:53:25;;;;;;;14.53;2.20;;;;;;;-145.18;100.00;46652.59;5055152;28;20102;-69
2022/11/09 00:56:20;;;;;;;15.03;2.47;;;;;;;-145.18;100.00;46658.44;5073020;28;20032;-69
2022/11/09 00:58:45;;;;;;;13.50;2.47;;;;;;;-145.18;100.00;46660.41;5073090;28;20056;-69
2022/11/09 01:01:15;;;;;;;10.13;2.43;;;;;;;-145.18;100.00;46660.41;5072602;28;20533;-69
2022/11/09 01:03:42;;;;;;;14.07;2.73;;;;;;;-145.18;100.00;46679.94;5072908;28;20033;-69
2022/11/09 01:06:08;;;;;;;10.30;2.00;;;;;;;-145.18;100.00;46664.31;5072115;28;20041;-69
2022/11/09 01:08:34;;;;;;;13.00;2.50;;;;;;;-145.18;100.00;46683.84;5072906;28;20033;-69
2022/11/09 01:11:05;;;;;;;5.53;1.47;;;;;;;-145.18;100.00;46689.69;5072582;28;20024;-69
2022/11/09 01:13:31;;;;;;;12.30;2.17;;;;;;;-145.18;100.00;46695.56;5072952;28;20112;-69
2022/11/09 01:15:56;;;;;;;11.87;1.80;;;;;;;-145.18;100.00;46699.47;5072486;28;20115;-69
2022/11/09 01:18:22;;;;;;;13.10;2.10;;;;;;;-145.18;100.00;46713.13;5072710;28;20048;-69
2022/11/09 01:20:48;;;;;;;14.07;2.10;;;;;;;-145.18;100.00;46717.03;5072866;28;20119;-69
2022/11/09 01:23:15;;;;;;;12.40;1.90;;;;;;;-145.18;100.00;46720.94;5072157;28;20169;-68
2022/11/09 01:25:41;;;;;;;13.97;2.07;;;;;;;-145.18;100.00;46720.94;5072706;28;20027;-69
2022/11/09 01:28:08;;;;;;;12.93;3.00;;;;;;;-145.18;100.00;46719.00;5072318;28;20417;-69
2022/11/09 01:30:35;;;;;;;18.53;2.67;;;;;;;-145.18;100.00;46715.09;5072387;28;20039;-69
2022/11/09 01:33:09;;;;;;;8.80;2.13;;;;;;;-145.18;100.00;46720.94;5072211;28;20121;-69
2022/11/09 01:35:36;;;;;;;11.97;1.90;;;;;;;-145.18;100.00;46713.13;5072448;28;20077;-70
2022/11/09 01:38:03;;;;;;;10.10;1.77;;;;;;;-145.18;100.00;46713.13;5071882;28;20051;-69
2022/11/09 01:40:29;;;;;;;11.03;2.70;;;;;;;-145.18;100.00;46715.09;5072208;28;20115;-69
2022/11/09 01:42:54;;;;;;;12.20;2.30;;;;;;;-145.18;100.00;46709.22;5071861;28;20039;-69
2022/11/09 01:45:28;;;;;;;7.97;1.50;;;;;;;-145.18;100.00;46711.19;5072120;28;20028;-69
2022/11/09 01:48:03;;;;;;;10.23;2.00;;;;;;;-145.18;100.00;46709.22;5071759;28;20043;-69
2022/11/09 01:50:39;;;;;;;14.07;2.40;;;;;;;-145.18;100.00;46701.41;5072355;28;20322;-69
2022/11/09 01:53:10;;;;;;;12.90;3.03;;;;;;;-145.18;100.00;46711.19;5071437;28;20188;-69
2022/11/09 01:55:36;;;;;;;6.57;1.90;;;;;;;-145.18;100.00;46707.28;5072336;28;20095;-69
2022/11/09 01:58:10;;;;;;;10.20;2.97;;;;;;;-145.18;100.00;46699.47;5071542;28;20497;-69
2022/11/09 02:00:37;;;;;;;7.23;1.90;;;;;;;-145.18;100.00;46689.69;5071916;28;20067;-69
2022/11/09 02:03:11;;;;;;;9.17;2.17;;;;;;;-145.18;100.00;46695.56;5070966;28;20040;-69
2022/11/09 02:05:40;;;;;;;9.80;2.47;;;;;;;-145.18;100.00;46707.28;5071957;28;20066;-69
2022/11/09 02:08:06;;;;;;;10.47;1.83;;;;;;;-145.18;100.00;46695.56;5071596;28;20040;-69
2022/11/09 02:10:43;;;;;;;13.20;2.00;;;;;;;-145.18;100.00;46695.56;5071621;28;20045;-69
2022/11/09 02:13:12;;;;;;;9.80;3.20;;;;;;;-145.18;100.00;46701.41;5071001;28;20036;-69
2022/11/09 02:15:38;;;;;;;13.80;2.20;;;;;;;-145.18;100.00;46691.66;5071872;28;20435;-69
2022/11/09 02:18:04;;;;;;;13.33;2.50;;;;;;;-145.18;100.00;46699.47;5071218;28;20040;-69
2022/11/09 02:20:29;;;;;;;12.40;1.97;;;;;;;-145.18;100.00;46691.66;5071459;28;20035;-69
2022/11/09 02:22:55;;;;;;;11.23;1.90;;;;;;;-145.18;100.00;46693.59;5071336;28;20397;-69
2022/11/09 02:25:20;;;;;;;11.50;2.50;;;;;;;-145.18;100.00;46691.66;5071123;28;20036;-69
2022/11/09 02:27:47;;;;;;;9.93;2.10;;;;;;;-145.18;100.00;46693.59;5071204;28;20048;-69
2022/11/09 02:30:13;;;;;;;13.33;2.23;;;;;;;-145.18;100.00;46685.78;5053394;28;20529;-69
2022/11/09 02:32:39;;;;;;;17.27;2.30;;;;;;;-145.18;100.00;46695.56;5071074;28;20115;-69
2022/11/09 02:35:05;;;;;;;9.10;1.70;;;;;;;-145.18;100.00;46707.28;5070773;28;20166;-69
2022/11/09 02:37:37;;;;;;;11.33;2.10;;;;;;;-145.18;100.00;46699.47;5070960;28;20040;-69
2022/11/09 02:40:10;;;;;;;10.07;2.60;;;;;;;-145.18;100.00;46705.31;5071063;28;20044;-69
2022/11/09 02:42:36;;;;;;;17.43;2.10;;;;;;;-145.18;100.00;46699.47;5070961;28;20028;-69
2022/11/09 02:45:01;;;;;;;12.93;2.20;;;;;;;-145.18;100.00;46695.56;5071045;28;20036;-69
2022/11/09 02:47:26;;;;;;;12.40;2.10;;;;;;;-145.18;100.00;46703.38;5070442;28;20453;-69
2022/11/09 02:49:52;;;;;;;8.93;2.00;;;;;;;-145.18;100.00;46709.22;5071256;28;20036;-69
2022/11/09 02:52:17;;;;;;;8.37;1.77;;;;;;;-145.18;100.00;46709.22;5070331;28;20520;-69
2022/11/09 02:54:43;;;;;;;16.50;2.80;;;;;;;-145.18;100.00;46701.41;5070415;28;20044;-69
2022/11/09 02:57:08;;;;;;;10.83;1.97;;;;;;;-145.18;100.00;46707.28;5070254;28;20053;-69
2022/11/09 02:59:34;;;;;;;13.33;2.83;;;;;;;-145.18;100.00;46703.38;5070581;28;20416;-69
